createdAt,value
2023-04-14T00:00:13.183Z,15.70
2023-04-14T00:02:41.355Z,15.70
2023-04-14T00:05:11.875Z,15.70
2023-04-14T00:07:39.848Z,15.70
2023-04-14T00:10:08.748Z,15.70
2023-04-14T00:12:36.726Z,15.60
2023-04-14T00:15:05.426Z,15.60
2023-04-14T00:17:33.545Z,15.60
2023-04-14T00:20:01.535Z,15.60
2023-04-14T00:22:31.020Z,15.60
2023-04-14T00:24:58.933Z,15.60
2023-04-14T00:27:26.847Z,15.60
2023-04-14T00:29:55.030Z,15.60
2023-04-14T00:32:22.958Z,15.60
2023-04-14T00:34:50.960Z,15.60
2023-04-14T00:37:18.862Z,15.60
2023-04-14T00:39:48.123Z,15.60
2023-04-14T00:42:16.157Z,15.60
2023-04-14T00:44:44.156Z,15.50
2023-04-14T00:47:12.181Z,15.60
2023-04-14T00:49:40.497Z,15.50
2023-04-14T00:52:08.547Z,15.50
2023-04-14T00:54:38.516Z,15.50
2023-04-14T00:57:07.859Z,15.50
2023-04-14T00:59:36.223Z,15.50
2023-04-14T01:02:04.577Z,15.50
2023-04-14T01:04:49.101Z,15.50
2023-04-14T01:07:23.277Z,15.50
2023-04-14T01:09:52.259Z,15.50
2023-04-14T01:12:40.982Z,15.40
2023-04-14T01:15:19.112Z,15.40
2023-04-14T01:17:57.510Z,15.40
2023-04-14T01:20:34.067Z,15.40
2023-04-14T01:23:08.447Z,15.40
2023-04-14T01:26:17.875Z,15.40
2023-04-14T01:29:36.069Z,15.30
2023-04-14T01:32:10.593Z,15.30
2023-04-14T01:34:47.184Z,15.30
2023-04-14T01:37:20.028Z,15.30
2023-04-14T01:39:54.056Z,15.30
2023-04-14T01:42:32.552Z,15.30
2023-04-14T01:45:09.748Z,15.30
2023-04-14T01:47:44.158Z,15.30
2023-04-14T01:50:13.897Z,15.30
2023-04-14T01:52:47.593Z,15.30
2023-04-14T01:55:19.249Z,15.30
2023-04-14T01:57:51.659Z,15.30
2023-04-14T02:00:21.409Z,15.30
2023-04-14T02:02:53.241Z,15.30
2023-04-14T02:05:24.948Z,15.30
2023-04-14T02:07:56.572Z,15.30
2023-04-14T02:10:26.181Z,15.30
2023-04-14T02:12:58.588Z,15.30
2023-04-14T02:15:29.149Z,15.30
2023-04-14T02:17:59.854Z,15.30
2023-04-14T02:20:30.219Z,15.30
2023-04-14T02:22:58.514Z,15.30
2023-04-14T02:25:33.378Z,15.20
2023-04-14T02:28:07.442Z,15.30
2023-04-14T02:30:41.614Z,15.20
2023-04-14T02:33:22.010Z,15.20
2023-04-14T02:36:01.561Z,15.20
2023-04-14T02:38:36.704Z,15.20
2023-04-14T02:41:12.608Z,15.20
2023-04-14T02:43:48.317Z,15.20
2023-04-14T02:46:21.044Z,15.20
2023-04-14T02:48:52.615Z,15.20
2023-04-14T02:51:23.787Z,15.20
2023-04-14T02:53:52.284Z,15.20
2023-04-14T02:56:29.280Z,15.20
2023-04-14T02:59:00.651Z,15.20
2023-04-14T03:01:33.110Z,15.20
2023-04-14T03:04:03.229Z,15.20
2023-04-14T03:06:34.059Z,15.20
2023-04-14T03:09:03.537Z,15.20
2023-04-14T03:11:33.996Z,15.20
2023-04-14T03:14:04.864Z,15.20
2023-04-14T03:16:34.817Z,15.20
2023-04-14T03:19:07.903Z,15.20
2023-04-14T03:21:38.813Z,15.20
2023-04-14T03:24:08.773Z,15.20
2023-04-14T03:26:39.902Z,15.20
2023-04-14T03:29:10.187Z,15.20
2023-04-14T03:31:40.246Z,15.20
2023-04-14T03:34:11.774Z,15.20
2023-04-14T03:36:45.441Z,15.20
2023-04-14T03:39:16.506Z,15.10
2023-04-14T03:41:49.266Z,15.10
2023-04-14T03:44:21.232Z,15.20
2023-04-14T03:46:51.516Z,15.10
2023-04-14T03:49:24.973Z,15.10
2023-04-14T03:51:58.624Z,15.20
2023-04-14T03:54:32.414Z,15.10
2023-04-14T03:57:04.666Z,15.10
2023-04-14T03:59:34.656Z,15.10
2023-04-14T04:02:04.446Z,15.20
2023-04-14T04:04:36.354Z,15.20
2023-04-14T04:07:10.393Z,15.10
2023-04-14T04:09:41.220Z,15.10
2023-04-14T04:12:14.116Z,15.10
2023-04-14T04:14:42.221Z,15.10
2023-04-14T04:17:15.922Z,15.10
2023-04-14T04:19:48.158Z,15.10
2023-04-14T04:22:21.008Z,15.10
2023-04-14T04:24:51.151Z,15.10
2023-04-14T04:27:28.013Z,15.10
2023-04-14T04:30:01.452Z,15.10
2023-04-14T04:32:32.469Z,15.10
2023-04-14T04:35:03.411Z,15.10
2023-04-14T04:37:33.592Z,15.10
2023-04-14T04:40:01.969Z,15.10
2023-04-14T04:42:30.745Z,15.10
2023-04-14T04:44:58.698Z,15.10
2023-04-14T04:47:26.998Z,15.10
2023-04-14T04:49:55.036Z,15.10
2023-04-14T04:52:27.087Z,15.10
2023-04-14T04:54:55.703Z,15.10
2023-04-14T04:57:23.591Z,15.10
2023-04-14T04:59:51.779Z,15.10
2023-04-14T05:02:19.898Z,15.10
2023-04-14T05:04:48.778Z,15.10
2023-04-14T05:07:16.864Z,15.10
2023-04-14T05:09:46.293Z,15.10
2023-04-14T05:12:14.224Z,15.10
2023-04-14T05:14:42.142Z,15.10
2023-04-14T05:17:10.057Z,15.10
2023-04-14T05:19:38.914Z,15.10
2023-04-14T05:22:06.927Z,15.10
2023-04-14T05:24:34.848Z,15.10
2023-04-14T05:27:13.002Z,15.10
2023-04-14T05:29:41.467Z,15.10
2023-04-14T05:32:10.645Z,15.10
2023-04-14T05:34:38.541Z,15.10
2023-04-14T05:37:06.454Z,15.20
2023-04-14T05:39:34.456Z,15.20
2023-04-14T05:42:03.764Z,15.10
2023-04-14T05:44:31.657Z,15.10
2023-04-14T05:46:59.571Z,15.20
2023-04-14T05:49:27.561Z,15.20
2023-04-14T05:51:56.561Z,15.20
2023-04-14T05:54:24.644Z,15.20
2023-04-14T05:56:52.536Z,15.20
2023-04-14T05:59:21.737Z,15.20
2023-04-14T06:01:49.711Z,15.20
2023-04-14T06:04:17.875Z,15.20
2023-04-14T06:06:46.161Z,15.20
2023-04-14T06:09:14.115Z,15.20
2023-04-14T06:11:41.983Z,15.20
2023-04-14T06:14:09.960Z,15.20
2023-04-14T06:16:39.223Z,15.20
2023-04-14T06:19:07.237Z,15.20
2023-04-14T06:21:35.179Z,15.20
2023-04-14T06:24:03.070Z,15.20
2023-04-14T06:26:31.326Z,15.20
2023-04-14T06:29:00.788Z,15.20
2023-04-14T06:31:29.025Z,15.20
2023-04-14T06:33:58.269Z,15.20
2023-04-14T06:36:27.140Z,15.20
2023-04-14T06:38:55.328Z,15.20
2023-04-14T06:41:23.243Z,15.30
2023-04-14T06:43:51.292Z,15.20
2023-04-14T06:46:19.343Z,15.30
2023-04-14T06:48:47.290Z,15.30
2023-04-14T06:51:16.539Z,15.30
2023-04-14T06:53:44.427Z,15.30
2023-04-14T06:56:12.370Z,15.30
2023-04-14T06:58:41.200Z,15.30
2023-04-14T07:01:09.130Z,15.30
2023-04-14T07:03:37.424Z,15.30
2023-04-14T07:06:07.668Z,15.30
2023-04-14T07:08:38.312Z,15.30
2023-04-14T07:11:09.170Z,15.30
2023-04-14T07:13:38.577Z,15.30
2023-04-14T07:16:08.112Z,15.30
2023-04-14T07:18:36.529Z,15.30
2023-04-14T07:21:04.432Z,15.30
2023-04-14T07:23:33.558Z,15.30
2023-04-14T07:26:02.831Z,15.30
2023-04-14T07:28:30.894Z,15.30
2023-04-14T07:30:58.772Z,15.30
2023-04-14T07:33:30.342Z,15.30
2023-04-14T07:36:03.500Z,15.30
2023-04-14T07:38:33.278Z,15.30
2023-04-14T07:41:06.605Z,15.30
2023-04-14T07:43:36.038Z,15.40
2023-04-14T07:46:05.791Z,15.40
2023-04-14T07:48:34.647Z,15.40
2023-04-14T07:51:03.162Z,15.40
2023-04-14T07:53:31.809Z,15.40
2023-04-14T07:56:00.243Z,15.40
2023-04-14T07:58:29.906Z,15.40
2023-04-14T08:00:58.267Z,15.40
2023-04-14T08:03:26.753Z,15.40
2023-04-14T08:05:54.836Z,15.40
2023-04-14T08:08:23.127Z,15.40
2023-04-14T08:10:51.060Z,15.40
2023-04-14T08:13:18.935Z,15.40
2023-04-14T08:15:48.236Z,15.40
2023-04-14T08:18:16.341Z,15.40
2023-04-14T08:20:44.290Z,15.40
2023-04-14T08:23:12.693Z,15.40
2023-04-14T08:25:40.755Z,15.50
2023-04-14T08:28:08.654Z,15.50
2023-04-14T08:30:37.058Z,15.50
2023-04-14T08:33:06.871Z,15.50
2023-04-14T08:35:42.153Z,15.50
2023-04-14T08:38:11.311Z,15.50
2023-04-14T08:40:41.492Z,15.50
2023-04-14T08:43:12.999Z,15.50
2023-04-14T08:45:44.866Z,15.50
2023-04-14T08:48:20.650Z,15.50
2023-04-14T08:50:59.671Z,15.50
2023-04-14T08:53:30.671Z,15.50
2023-04-14T08:56:04.313Z,15.50
2023-04-14T08:58:32.902Z,15.50
2023-04-14T09:01:01.757Z,15.60
2023-04-14T09:03:32.381Z,15.60
2023-04-14T09:06:02.531Z,15.60
2023-04-14T09:08:34.033Z,15.60
2023-04-14T09:11:03.483Z,15.60
2023-04-14T09:13:32.285Z,15.60
2023-04-14T09:16:01.768Z,15.60
2023-04-14T09:18:31.437Z,15.60
2023-04-14T09:21:31.375Z,15.60
2023-04-14T09:23:51.912Z,15.60
2023-04-14T09:26:19.803Z,15.60
2023-04-14T09:28:47.643Z,15.60
2023-04-14T09:31:15.678Z,15.60
2023-04-14T09:33:50.260Z,15.60
2023-04-14T09:36:24.229Z,15.60
2023-04-14T09:38:53.002Z,15.60
2023-04-14T09:41:22.863Z,15.60
2023-04-14T09:43:52.610Z,15.60
2023-04-14T09:46:20.825Z,15.60
2023-04-14T09:48:55.857Z,15.50
2023-04-14T09:51:28.415Z,15.60
2023-04-14T09:54:02.502Z,15.60
2023-04-14T09:56:30.544Z,15.60
2023-04-14T09:59:02.213Z,15.60
2023-04-14T10:01:34.080Z,15.50
2023-04-14T10:04:04.720Z,15.50
2023-04-14T10:06:32.624Z,15.60
2023-04-14T10:09:01.004Z,15.60
2023-04-14T10:11:32.619Z,15.50
2023-04-14T10:14:03.787Z,15.60
2023-04-14T10:16:32.850Z,15.60
2023-04-14T10:19:01.871Z,15.60
2023-04-14T10:21:31.699Z,15.60
2023-04-14T10:23:59.683Z,15.60
2023-04-14T10:26:28.095Z,15.60
2023-04-14T10:28:57.252Z,15.60
2023-04-14T10:31:30.172Z,15.60
2023-04-14T10:33:58.215Z,15.60
2023-04-14T10:36:27.958Z,15.60
2023-04-14T10:39:03.335Z,15.60
2023-04-14T10:41:46.689Z,15.60
2023-04-14T10:44:26.268Z,15.60
2023-04-14T10:46:56.562Z,15.60
2023-04-14T10:49:32.758Z,15.60
2023-04-14T10:52:03.500Z,15.60
2023-04-14T10:54:51.118Z,15.50
2023-04-14T10:57:22.967Z,15.60
2023-04-14T10:59:56.942Z,15.60
2023-04-14T11:02:28.088Z,15.60
2023-04-14T11:05:02.282Z,15.60
2023-04-14T11:07:31.296Z,15.60
2023-04-14T11:10:21.791Z,15.60
2023-04-14T11:12:56.240Z,15.60
2023-04-14T11:15:24.558Z,15.60
2023-04-14T11:17:52.745Z,15.60
2023-04-14T11:20:23.452Z,15.60
2023-04-14T11:22:54.105Z,15.60
2023-04-14T11:25:24.824Z,15.60
2023-04-14T11:27:53.400Z,15.60
2023-04-14T11:30:22.840Z,15.60
2023-04-14T11:32:53.418Z,15.60
2023-04-14T11:35:24.717Z,15.60
2023-04-14T11:37:55.792Z,15.60
2023-04-14T11:40:27.469Z,15.60
2023-04-14T11:42:57.902Z,15.60
2023-04-14T11:45:29.772Z,15.60
2023-04-14T11:47:59.749Z,15.60
2023-04-14T11:50:30.327Z,15.60
2023-04-14T11:52:59.452Z,15.60
2023-04-14T11:55:30.695Z,15.60
2023-04-14T11:57:59.207Z,15.60
2023-04-14T12:00:28.829Z,15.60
2023-04-14T12:02:58.630Z,15.60
2023-04-14T12:05:31.170Z,15.60
2023-04-14T12:08:01.223Z,15.60
2023-04-14T12:10:30.703Z,15.60
2023-04-14T12:13:03.098Z,15.60
2023-04-14T12:15:32.662Z,15.60
2023-04-14T12:18:01.414Z,15.60
2023-04-14T12:20:30.869Z,15.60
2023-04-14T12:23:03.397Z,15.60
2023-04-14T12:25:34.426Z,15.60
2023-04-14T12:28:06.098Z,15.60
2023-04-14T12:30:35.780Z,15.60
2023-04-14T12:33:11.325Z,15.50
2023-04-14T12:35:40.440Z,15.60
2023-04-14T12:38:13.391Z,15.60
2023-04-14T12:40:46.092Z,15.50
2023-04-14T12:45:51.138Z,15.50
2023-04-14T12:48:19.600Z,15.50
2023-04-14T12:50:47.688Z,15.50
2023-04-14T12:53:26.234Z,15.50
2023-04-14T12:56:08.737Z,15.50
2023-04-14T12:58:37.793Z,15.50
2023-04-14T13:01:08.092Z,15.50
2023-04-14T13:03:45.926Z,15.50
2023-04-14T13:06:17.212Z,15.60
2023-04-14T13:08:46.128Z,15.60
2023-04-14T13:11:14.877Z,15.60
2023-04-14T13:13:44.337Z,15.60
2023-04-14T13:16:16.941Z,15.60
2023-04-14T13:18:47.669Z,15.60
2023-04-14T13:21:16.282Z,15.60
2023-04-14T13:23:44.421Z,15.60
2023-04-14T13:26:13.121Z,15.60
2023-04-14T13:28:41.346Z,15.60
2023-04-14T13:31:09.414Z,15.60
2023-04-14T13:33:38.696Z,15.60
2023-04-14T13:36:07.367Z,15.60
2023-04-14T13:38:35.225Z,15.50
2023-04-14T13:41:03.178Z,15.60
2023-04-14T13:43:32.971Z,15.60
2023-04-14T13:46:01.958Z,15.60
2023-04-14T13:48:31.423Z,15.60
2023-04-14T13:51:01.818Z,15.60
2023-04-14T13:53:29.793Z,15.60
2023-04-14T13:55:57.747Z,15.60
2023-04-14T13:58:26.366Z,15.60
2023-04-14T14:00:55.367Z,15.60
2023-04-14T14:03:23.774Z,15.60
2023-04-14T14:05:51.868Z,15.60
2023-04-14T14:08:21.160Z,15.60
2023-04-14T14:10:49.055Z,15.60
2023-04-14T14:13:18.531Z,15.60
2023-04-14T14:15:47.693Z,15.60
2023-04-14T14:18:16.598Z,15.60
2023-04-14T14:20:44.958Z,15.60
2023-04-14T14:23:12.985Z,15.50
2023-04-14T14:25:42.768Z,15.50
2023-04-14T14:28:10.729Z,15.50
2023-04-14T14:30:38.848Z,15.60
2023-04-14T14:33:06.883Z,15.60
2023-04-14T14:35:34.867Z,15.50
2023-04-14T14:38:02.800Z,15.50
2023-04-14T14:40:30.954Z,15.50
2023-04-14T14:43:00.223Z,15.50
2023-04-14T14:45:31.078Z,15.50
2023-04-14T14:48:00.530Z,15.50
2023-04-14T14:50:28.851Z,15.50
2023-04-14T14:52:57.104Z,15.50
2023-04-14T14:55:25.166Z,15.50
2023-04-14T14:57:53.100Z,15.50
2023-04-14T15:00:22.432Z,15.50
2023-04-14T15:02:50.682Z,15.50
2023-04-14T15:05:19.146Z,15.50
2023-04-14T15:07:47.006Z,15.50
2023-04-14T15:10:16.020Z,15.50
2023-04-14T15:12:43.933Z,15.50
2023-04-14T15:15:12.896Z,15.50
2023-04-14T15:17:42.151Z,15.50
2023-04-14T15:20:11.608Z,15.50
2023-04-14T15:22:39.590Z,15.50
2023-04-14T15:25:09.111Z,15.50
2023-04-14T15:27:37.357Z,15.50
2023-04-14T15:30:06.762Z,15.50
2023-04-14T15:32:34.690Z,15.50
2023-04-14T15:35:04.205Z,15.50
2023-04-14T15:37:32.131Z,15.50
2023-04-14T15:40:00.320Z,15.50
2023-04-14T15:42:28.543Z,15.50
2023-04-14T15:44:56.420Z,15.50
2023-04-14T15:47:24.331Z,15.50
2023-04-14T15:49:55.966Z,15.50
2023-04-14T15:52:39.315Z,15.50
2023-04-14T15:55:10.680Z,15.50
2023-04-14T15:57:38.637Z,15.50
2023-04-14T16:00:08.609Z,15.50
2023-04-14T16:02:45.794Z,15.40
2023-04-14T16:05:13.913Z,15.40
2023-04-14T16:07:43.735Z,15.40
2023-04-14T16:10:12.291Z,15.40
2023-04-14T16:12:40.696Z,15.40
2023-04-14T16:15:10.392Z,15.40
2023-04-14T16:17:38.267Z,15.40
2023-04-14T16:20:07.525Z,15.40
2023-04-14T16:22:35.410Z,15.40
2023-04-14T16:25:05.723Z,15.40
2023-04-14T16:27:33.827Z,15.40
2023-04-14T16:30:01.859Z,15.40
2023-04-14T16:32:30.547Z,15.40
2023-04-14T16:34:58.569Z,15.40
2023-04-14T16:37:27.447Z,15.40
2023-04-14T16:39:55.978Z,15.40
2023-04-14T16:42:26.165Z,15.40
2023-04-14T16:44:54.750Z,15.40
2023-04-14T16:47:23.374Z,15.40
2023-04-14T16:49:52.708Z,15.40
2023-04-14T16:52:20.769Z,15.40
2023-04-14T16:54:48.707Z,15.40
2023-04-14T16:57:16.611Z,15.40
2023-04-14T16:59:46.244Z,15.30
2023-04-14T17:02:14.333Z,15.40
2023-04-14T17:04:42.655Z,15.40
2023-04-14T17:07:10.708Z,15.40
2023-04-14T17:09:38.684Z,15.40
2023-04-14T17:12:06.974Z,15.40
2023-04-14T17:14:35.638Z,15.40
2023-04-14T17:17:04.992Z,15.40
2023-04-14T17:19:32.957Z,15.40
2023-04-14T17:22:00.878Z,15.40
2023-04-14T17:24:29.530Z,15.40
2023-04-14T17:26:57.893Z,15.40
2023-04-14T17:29:26.024Z,15.40
2023-04-14T17:31:54.437Z,15.40
2023-04-14T17:34:23.858Z,15.40
2023-04-14T17:36:51.889Z,15.40
2023-04-14T17:39:26.469Z,15.40
2023-04-14T17:41:56.103Z,15.40
2023-04-14T17:44:34.738Z,15.30
2023-04-14T17:47:03.382Z,15.30
2023-04-14T17:49:34.095Z,15.30
2023-04-14T17:52:17.096Z,15.30
2023-04-14T17:54:46.416Z,15.30
2023-04-14T17:57:14.730Z,15.30
2023-04-14T17:59:44.792Z,15.30
2023-04-14T18:02:15.854Z,15.30
2023-04-14T18:04:45.532Z,15.30
2023-04-14T18:07:13.456Z,15.30
2023-04-14T18:09:41.607Z,15.40
2023-04-14T18:12:10.702Z,15.30
2023-04-14T18:14:38.637Z,15.30
2023-04-14T18:17:07.002Z,15.30
2023-04-14T18:19:35.826Z,15.30
2023-04-14T18:22:05.082Z,15.30
2023-04-14T18:29:36.860Z,15.30
2023-04-14T18:32:04.760Z,15.30
2023-04-14T18:34:32.689Z,15.30
2023-04-14T18:37:00.746Z,15.30
2023-04-14T18:39:33.528Z,15.30
2023-04-14T18:42:01.599Z,15.30
2023-04-14T18:44:29.488Z,15.30
2023-04-14T18:46:57.762Z,15.30
2023-04-14T18:49:25.987Z,15.30
2023-04-14T18:51:54.856Z,15.30
2023-04-14T18:54:22.935Z,15.30
2023-04-14T18:56:52.168Z,15.30
2023-04-14T18:59:20.323Z,15.30
2023-04-14T19:01:48.558Z,15.30
2023-04-14T19:04:16.860Z,15.30
2023-04-14T19:06:44.812Z,15.30
2023-04-14T19:09:12.771Z,15.30
2023-04-14T19:11:40.667Z,15.30
2023-04-14T19:14:09.956Z,15.30
2023-04-14T19:16:38.481Z,15.30
2023-04-14T19:19:06.481Z,15.30
2023-04-14T19:21:34.647Z,15.30
2023-04-14T19:24:02.631Z,15.30
2023-04-14T19:26:31.043Z,15.30
2023-04-14T19:29:00.131Z,15.30
2023-04-14T19:31:30.302Z,15.30
2023-04-14T19:33:58.639Z,15.30
2023-04-14T19:36:26.616Z,15.20
2023-04-14T19:38:54.490Z,15.30
2023-04-14T19:41:22.423Z,15.20
2023-04-14T19:43:51.967Z,15.20
2023-04-14T19:46:20.117Z,15.20
2023-04-14T19:48:49.487Z,15.20
2023-04-14T19:51:18.343Z,15.20
2023-04-14T19:53:48.011Z,15.20
2023-04-14T19:56:16.273Z,15.20
2023-04-14T19:58:44.285Z,15.20
2023-04-14T20:01:13.006Z,15.20
2023-04-14T20:04:05.274Z,15.20
2023-04-14T20:06:30.619Z,15.20
2023-04-14T20:08:58.481Z,15.20
2023-04-14T20:11:28.019Z,15.20
2023-04-14T20:13:55.970Z,15.20
2023-04-14T20:16:24.448Z,15.20
2023-04-14T20:18:52.429Z,15.20
2023-04-14T20:21:20.389Z,15.10
2023-04-14T20:23:49.754Z,15.20
2023-04-14T20:26:18.170Z,15.20
2023-04-14T20:28:47.512Z,15.20
2023-04-14T20:31:15.747Z,15.20
2023-04-14T20:33:44.241Z,15.20
2023-04-14T20:36:12.476Z,15.20
2023-04-14T20:38:40.456Z,15.20
2023-04-14T20:41:09.770Z,15.10
2023-04-14T20:43:37.663Z,15.20
2023-04-14T20:46:06.000Z,15.10
2023-04-14T20:48:33.914Z,15.20
2023-04-14T20:51:01.858Z,15.10
2023-04-14T20:53:30.126Z,15.10
2023-04-14T20:55:58.136Z,15.20
2023-04-14T20:58:27.389Z,15.10
2023-04-14T21:00:56.623Z,15.10
2023-04-14T21:03:24.775Z,15.10
2023-04-14T21:05:52.679Z,15.10
2023-04-14T21:08:21.233Z,15.10
2023-04-14T21:11:15.703Z,15.10
2023-04-14T21:15:29.552Z,15.10
2023-04-14T21:16:29.234Z,15.10
2023-04-14T21:18:57.357Z,15.10
2023-04-14T21:21:26.166Z,15.10
2023-04-14T21:23:54.090Z,15.10
2023-04-14T21:26:22.009Z,15.10
2023-04-14T21:28:51.223Z,15.10
2023-04-14T21:31:19.323Z,15.10
2023-04-14T21:33:47.699Z,15.10
2023-04-14T21:36:15.741Z,15.10
2023-04-14T21:38:43.638Z,15.10
2023-04-14T21:41:11.828Z,15.10
2023-04-14T21:43:39.702Z,15.10
2023-04-14T21:46:09.000Z,15.10
2023-04-14T21:48:37.092Z,15.10
2023-04-14T21:51:05.205Z,15.10
2023-04-14T21:53:33.353Z,15.10
2023-04-14T21:56:10.431Z,15.10
2023-04-14T21:58:40.212Z,15.00
2023-04-14T22:01:10.726Z,15.00
2023-04-14T22:03:41.456Z,15.00
2023-04-14T22:06:11.132Z,15.00
2023-04-14T22:08:40.459Z,15.10
2023-04-14T22:11:08.755Z,15.10
2023-04-14T22:13:36.716Z,15.00
2023-04-14T22:16:05.175Z,15.10
2023-04-14T22:18:35.809Z,15.00
2023-04-14T22:21:04.823Z,15.00
2023-04-14T22:23:33.038Z,15.00
2023-04-14T22:26:00.999Z,15.00
2023-04-14T22:28:28.937Z,15.00
2023-04-14T22:30:56.916Z,15.00
2023-04-14T22:33:25.846Z,15.00
2023-04-14T22:35:55.156Z,15.00
2023-04-14T22:38:23.006Z,15.00
2023-04-14T22:40:52.690Z,15.00
2023-04-14T22:43:20.958Z,15.00
2023-04-14T22:45:49.210Z,15.00
2023-04-14T22:48:17.208Z,15.00
2023-04-14T22:50:45.220Z,15.00
2023-04-14T22:53:14.433Z,15.00
2023-04-14T22:55:43.652Z,15.00
2023-04-14T22:58:16.507Z,15.00
2023-04-14T23:00:45.628Z,15.00
2023-04-14T23:03:13.724Z,15.00
2023-04-14T23:05:41.792Z,15.00
2023-04-14T23:08:10.240Z,15.00
2023-04-14T23:10:39.497Z,15.00
2023-04-14T23:13:08.234Z,15.00
2023-04-14T23:15:36.334Z,15.00
2023-04-14T23:18:05.541Z,15.00
2023-04-14T23:20:33.524Z,15.00
2023-04-14T23:23:01.661Z,15.00
2023-04-14T23:25:29.622Z,15.00
2023-04-14T23:27:58.933Z,14.90
2023-04-14T23:30:27.512Z,14.90
2023-04-14T23:32:55.713Z,14.90
2023-04-14T23:35:23.666Z,14.90
2023-04-14T23:37:52.055Z,14.90
2023-04-14T23:40:20.672Z,14.90
2023-04-14T23:42:48.657Z,14.90
2023-04-14T23:45:18.259Z,14.90
2023-04-14T23:47:46.388Z,15.00
2023-04-14T23:50:14.368Z,14.90
2023-04-14T23:52:42.657Z,14.90
2023-04-14T23:55:10.854Z,14.90
2023-04-14T23:57:39.043Z,14.90
